sensor_id;sensor_type;location;lat;lon;timestamp;pressure;altitude;pressure_sealevel;temperature;humidity
5146;BME280;2591;48.144;15.152;2023-03-01T00:02:24;77895.25;;;-144.65;71.30
5146;BME280;2591;48.144;15.152;2023-03-01T00:04:52;77893.22;;;-144.65;71.62
5146;BME280;2591;48.144;15.152;2023-03-01T00:07:20;77889.13;;;-144.65;71.72
5146;BME280;2591;48.144;15.152;2023-03-01T00:09:49;77880.97;;;-144.65;71.65
5146;BME280;2591;48.144;15.152;2023-03-01T00:12:17;77885.06;;;-144.65;71.77
5146;BME280;2591;48.144;15.152;2023-03-01T00:14:45;77893.22;;;-144.65;71.92
5146;BME280;2591;48.144;15.152;2023-03-01T00:17:12;77897.28;;;-144.65;72.05
5146;BME280;2591;48.144;15.152;2023-03-01T00:19:40;77895.25;;;-144.65;72.36
5146;BME280;2591;48.144;15.152;2023-03-01T00:22:08;77895.25;;;-144.65;72.27
5146;BME280;2591;48.144;15.152;2023-03-01T00:24:36;77901.38;;;-144.65;72.54
5146;BME280;2591;48.144;15.152;2023-03-01T00:27:05;77907.50;;;-144.65;73.14
5146;BME280;2591;48.144;15.152;2023-03-01T00:29:34;77921.78;;;-144.65;73.61
5146;BME280;2591;48.144;15.152;2023-03-01T00:32:01;77925.84;;;-144.65;74.02
5146;BME280;2591;48.144;15.152;2023-03-01T00:34:29;77934.00;;;-144.65;74.77
5146;BME280;2591;48.144;15.152;2023-03-01T00:36:57;77942.16;;;-144.65;75.22
5146;BME280;2591;48.144;15.152;2023-03-01T00:39:31;77964.59;;;-144.65;76.02
5146;BME280;2591;48.144;15.152;2023-03-01T00:41:59;77980.94;;;-144.65;76.87
5146;BME280;2591;48.144;15.152;2023-03-01T00:44:29;77987.06;;;-144.65;77.93
5146;BME280;2591;48.144;15.152;2023-03-01T00:46:57;77987.06;;;-144.65;78.37
5146;BME280;2591;48.144;15.152;2023-03-01T00:49:25;77991.13;;;-144.65;78.95
5146;BME280;2591;48.144;15.152;2023-03-01T00:51:54;78015.59;;;-144.65;79.96
5146;BME280;2591;48.144;15.152;2023-03-01T00:54:21;78003.38;;;-144.65;80.52
5146;BME280;2591;48.144;15.152;2023-03-01T00:56:49;78003.38;;;-144.65;80.94
5146;BME280;2591;48.144;15.152;2023-03-01T00:59:17;78001.31;;;-144.65;81.66
5146;BME280;2591;48.144;15.152;2023-03-01T01:01:46;77997.25;;;-144.65;82.26
5146;BME280;2591;48.144;15.152;2023-03-01T01:04:14;78015.59;;;-144.65;83.28
5146;BME280;2591;48.144;15.152;2023-03-01T01:06:43;78011.53;;;-144.65;84.07
5146;BME280;2591;48.144;15.152;2023-03-01T01:09:14;78015.59;;;-144.65;84.36
5146;BME280;2591;48.144;15.152;2023-03-01T01:11:45;78023.78;;;-144.65;84.94
5146;BME280;2591;48.144;15.152;2023-03-01T01:14:14;78031.94;;;-144.65;85.74
5146;BME280;2591;48.144;15.152;2023-03-01T01:16:42;78015.59;;;-144.65;85.34
5146;BME280;2591;48.144;15.152;2023-03-01T01:19:12;77999.28;;;-144.65;84.56
5146;BME280;2591;48.144;15.152;2023-03-01T01:21:40;77991.13;;;-144.65;84.17
5146;BME280;2591;48.144;15.152;2023-03-01T01:24:09;77978.88;;;-144.65;83.53
5146;BME280;2591;48.144;15.152;2023-03-01T01:26:37;77970.72;;;-144.65;82.61
5146;BME280;2591;48.144;15.152;2023-03-01T01:29:06;77968.69;;;-144.65;81.86
5146;BME280;2591;48.144;15.152;2023-03-01T01:31:35;77970.72;;;-144.65;82.37
5146;BME280;2591;48.144;15.152;2023-03-01T01:34:05;77991.13;;;-144.65;82.61
5146;BME280;2591;48.144;15.152;2023-03-01T01:36:34;77993.16;;;-144.65;83.29
5146;BME280;2591;48.144;15.152;2023-03-01T01:39:02;78003.38;;;-144.65;84.07
5146;BME280;2591;48.144;15.152;2023-03-01T01:41:31;78009.50;;;-144.65;84.94
5146;BME280;2591;48.144;15.152;2023-03-01T01:44:14;77999.28;;;-144.65;84.62
5146;BME280;2591;48.144;15.152;2023-03-01T01:46:44;77991.13;;;-144.65;84.94
5146;BME280;2591;48.144;15.152;2023-03-01T01:49:22;77987.06;;;-144.65;84.34
5146;BME280;2591;48.144;15.152;2023-03-01T01:51:58;77982.97;;;-144.65;83.94
5146;BME280;2591;48.144;15.152;2023-03-01T01:54:31;77974.81;;;-144.65;83.22
5146;BME280;2591;48.144;15.152;2023-03-01T01:57:03;77970.72;;;-144.65;83.10
5146;BME280;2591;48.144;15.152;2023-03-01T01:59:34;77976.84;;;-144.65;83.25
5146;BME280;2591;48.144;15.152;2023-03-01T02:02:03;77991.13;;;-144.65;83.67
5146;BME280;2591;48.144;15.152;2023-03-01T02:04:32;77982.97;;;-144.65;84.20
5146;BME280;2591;48.144;15.152;2023-03-01T02:07:05;77995.22;;;-144.65;84.76
5146;BME280;2591;48.144;15.152;2023-03-01T02:09:35;77995.22;;;-144.65;84.81
5146;BME280;2591;48.144;15.152;2023-03-01T02:12:04;78003.38;;;-144.65;85.41
5146;BME280;2591;48.144;15.152;2023-03-01T02:14:32;77995.22;;;-144.65;86.30
5146;BME280;2591;48.144;15.152;2023-03-01T02:17:00;77991.13;;;-144.65;86.68
5146;BME280;2591;48.144;15.152;2023-03-01T02:19:38;78003.38;;;-144.65;86.35
5146;BME280;2591;48.144;15.152;2023-03-01T02:22:15;77995.22;;;-144.65;85.76
5146;BME280;2591;48.144;15.152;2023-03-01T02:24:49;77987.06;;;-144.65;85.41
5146;BME280;2591;48.144;15.152;2023-03-01T02:27:23;77964.59;;;-144.65;84.66
5146;BME280;2591;48.144;15.152;2023-03-01T02:29:55;77946.25;;;-144.65;83.46
5146;BME280;2591;48.144;15.152;2023-03-01T02:32:23;77934.00;;;-144.65;82.52
5146;BME280;2591;48.144;15.152;2023-03-01T02:34:52;77934.00;;;-144.65;82.42
5146;BME280;2591;48.144;15.152;2023-03-01T02:37:21;77909.53;;;-144.65;81.40
5146;BME280;2591;48.144;15.152;2023-03-01T02:39:54;77897.28;;;-144.65;80.63
5146;BME280;2591;48.144;15.152;2023-03-01T02:42:28;77903.41;;;-144.65;80.66
5146;BME280;2591;48.144;15.152;2023-03-01T02:44:59;77897.28;;;-144.65;80.58
5146;BME280;2591;48.144;15.152;2023-03-01T02:47:27;77897.28;;;-144.65;80.32
5146;BME280;2591;48.144;15.152;2023-03-01T02:49:55;77911.56;;;-144.65;80.35
5146;BME280;2591;48.144;15.152;2023-03-01T02:52:34;77899.34;;;-144.65;80.28
5146;BME280;2591;48.144;15.152;2023-03-01T02:55:09;77901.38;;;-144.65;80.36
5146;BME280;2591;48.144;15.152;2023-03-01T02:57:40;77909.53;;;-144.65;80.29
5146;BME280;2591;48.144;15.152;2023-03-01T03:00:14;77909.53;;;-144.65;80.26
5146;BME280;2591;48.144;15.152;2023-03-01T03:02:47;77909.53;;;-144.65;80.55
5146;BME280;2591;48.144;15.152;2023-03-01T03:05:17;77909.53;;;-144.65;80.24
5146;BME280;2591;48.144;15.152;2023-03-01T03:07:47;77903.41;;;-144.65;80.35
5146;BME280;2591;48.144;15.152;2023-03-01T03:10:16;77911.56;;;-144.65;80.37
5146;BME280;2591;48.144;15.152;2023-03-01T03:12:49;77917.69;;;-144.65;80.30
5146;BME280;2591;48.144;15.152;2023-03-01T03:15:20;77909.53;;;-144.65;80.46
5146;BME280;2591;48.144;15.152;2023-03-01T03:17:50;77927.88;;;-144.65;80.60
5146;BME280;2591;48.144;15.152;2023-03-01T03:20:20;77909.53;;;-144.65;80.32
5146;BME280;2591;48.144;15.152;2023-03-01T03:22:52;77919.72;;;-144.65;80.96
5146;BME280;2591;48.144;15.152;2023-03-01T03:25:21;77921.78;;;-144.65;80.87
5146;BME280;2591;48.144;15.152;2023-03-01T03:27:50;77909.53;;;-144.65;80.44
5146;BME280;2591;48.144;15.152;2023-03-01T03:30:26;77909.53;;;-144.65;80.48
5146;BME280;2591;48.144;15.152;2023-03-01T03:32:55;77907.50;;;-144.65;80.37
5146;BME280;2591;48.144;15.152;2023-03-01T03:35:25;77905.47;;;-144.65;80.30
5146;BME280;2591;48.144;15.152;2023-03-01T03:37:58;77899.34;;;-144.65;80.40
5146;BME280;2591;48.144;15.152;2023-03-01T03:40:30;77889.13;;;-144.65;80.26
5146;BME280;2591;48.144;15.152;2023-03-01T03:42:58;77897.28;;;-144.65;79.92
5146;BME280;2591;48.144;15.152;2023-03-01T03:45:28;77899.34;;;-144.65;80.14
5146;BME280;2591;48.144;15.152;2023-03-01T03:47:55;77907.50;;;-144.65;80.88
5146;BME280;2591;48.144;15.152;2023-03-01T03:50:23;77921.78;;;-144.65;81.96
5146;BME280;2591;48.144;15.152;2023-03-01T03:52:51;77917.69;;;-144.65;81.79
5146;BME280;2591;48.144;15.152;2023-03-01T03:55:19;77925.84;;;-144.65;82.43
5146;BME280;2591;48.144;15.152;2023-03-01T03:57:48;77934.00;;;-144.65;82.84
5146;BME280;2591;48.144;15.152;2023-03-01T04:00:20;77946.25;;;-144.65;83.47
5146;BME280;2591;48.144;15.152;2023-03-01T04:02:50;77946.25;;;-144.65;83.84
5146;BME280;2591;48.144;15.152;2023-03-01T04:05:23;77946.25;;;-144.65;83.73
5146;BME280;2591;48.144;15.152;2023-03-01T04:07:51;77934.00;;;-144.65;84.25
5146;BME280;2591;48.144;15.152;2023-03-01T04:10:29;77938.09;;;-144.65;84.43
5146;BME280;2591;48.144;15.152;2023-03-01T04:12:58;77952.38;;;-144.65;85.04
5146;BME280;2591;48.144;15.152;2023-03-01T04:15:27;77962.56;;;-144.65;85.85
5146;BME280;2591;48.144;15.152;2023-03-01T04:17:56;77970.72;;;-144.65;86.13
5146;BME280;2591;48.144;15.152;2023-03-01T04:20:27;77966.66;;;-144.65;86.57
5146;BME280;2591;48.144;15.152;2023-03-01T04:23:02;77962.56;;;-144.65;86.74
5146;BME280;2591;48.144;15.152;2023-03-01T04:25:38;77974.81;;;-144.65;86.83
5146;BME280;2591;48.144;15.152;2023-03-01T04:28:07;77980.94;;;-144.65;87.63
5146;BME280;2591;48.144;15.152;2023-03-01T04:30:35;77987.06;;;-144.65;88.02
5146;BME280;2591;48.144;15.152;2023-03-01T04:33:06;77995.22;;;-144.65;88.04
5146;BME280;2591;48.144;15.152;2023-03-01T04:35:36;77987.06;;;-144.65;88.84
5146;BME280;2591;48.144;15.152;2023-03-01T04:38:04;77991.13;;;-144.65;88.97
5146;BME280;2591;48.144;15.152;2023-03-01T04:40:32;77995.22;;;-144.65;89.43
5146;BME280;2591;48.144;15.152;2023-03-01T04:43:01;77999.28;;;-144.65;89.85
5146;BME280;2591;48.144;15.152;2023-03-01T04:45:29;78001.31;;;-144.65;90.28
5146;BME280;2591;48.144;15.152;2023-03-01T04:47:57;77999.28;;;-144.65;90.88
5146;BME280;2591;48.144;15.152;2023-03-01T04:50:26;77999.28;;;-144.65;91.21
5146;BME280;2591;48.144;15.152;2023-03-01T04:52:54;77993.16;;;-144.65;90.55
5146;BME280;2591;48.144;15.152;2023-03-01T04:55:26;77991.13;;;-144.65;90.49
5146;BME280;2591;48.144;15.152;2023-03-01T04:57:54;77999.28;;;-144.65;90.68
5146;BME280;2591;48.144;15.152;2023-03-01T05:00:22;77991.13;;;-144.65;90.52
5146;BME280;2591;48.144;15.152;2023-03-01T05:02:52;77999.28;;;-144.65;90.90
5146;BME280;2591;48.144;15.152;2023-03-01T05:05:23;78005.41;;;-144.65;90.82
5146;BME280;2591;48.144;15.152;2023-03-01T05:07:55;78001.31;;;-144.65;90.57
5146;BME280;2591;48.144;15.152;2023-03-01T05:10:24;77993.16;;;-144.65;90.46
5146;BME280;2591;48.144;15.152;2023-03-01T05:12:52;78003.38;;;-144.65;90.20
5146;BME280;2591;48.144;15.152;2023-03-01T05:15:20;78003.38;;;-144.65;90.46
5146;BME280;2591;48.144;15.152;2023-03-01T05:17:52;77999.28;;;-144.65;90.03
5146;BME280;2591;48.144;15.152;2023-03-01T05:20:21;77985.00;;;-144.65;89.69
5146;BME280;2591;48.144;15.152;2023-03-01T05:22:51;77995.22;;;-144.65;89.78
5146;BME280;2591;48.144;15.152;2023-03-01T05:25:21;77993.16;;;-144.65;89.50
5146;BME280;2591;48.144;15.152;2023-03-01T05:27:49;78003.38;;;-144.65;89.66
5146;BME280;2591;48.144;15.152;2023-03-01T05:30:17;78009.50;;;-144.65;90.16
5146;BME280;2591;48.144;15.152;2023-03-01T05:32:48;78011.53;;;-144.65;90.98
5146;BME280;2591;48.144;15.152;2023-03-01T05:35:17;78019.69;;;-144.65;91.50
5146;BME280;2591;48.144;15.152;2023-03-01T05:37:47;78019.69;;;-144.65;91.55
5146;BME280;2591;48.144;15.152;2023-03-01T05:40:17;78036.00;;;-144.65;91.52
5146;BME280;2591;48.144;15.152;2023-03-01T05:42:48;78025.81;;;-144.65;91.92
5146;BME280;2591;48.144;15.152;2023-03-01T05:45:17;78029.88;;;-144.65;92.24
5146;BME280;2591;48.144;15.152;2023-03-01T05:47:46;78025.81;;;-144.65;91.89
5146;BME280;2591;48.144;15.152;2023-03-01T05:50:17;78027.84;;;-144.65;91.74
5146;BME280;2591;48.144;15.152;2023-03-01T05:52:46;78027.84;;;-144.65;91.36
5146;BME280;2591;48.144;15.152;2023-03-01T05:55:15;78038.06;;;-144.65;91.70
5146;BME280;2591;48.144;15.152;2023-03-01T05:57:43;78056.41;;;-144.65;92.45
5146;BME280;2591;48.144;15.152;2023-03-01T06:00:15;78056.41;;;-144.65;92.75
5146;BME280;2591;48.144;15.152;2023-03-01T06:02:43;78046.22;;;-144.65;92.97
5146;BME280;2591;48.144;15.152;2023-03-01T06:05:12;78060.50;;;-144.65;92.82
5146;BME280;2591;48.144;15.152;2023-03-01T06:07:40;78048.25;;;-144.65;93.20
5146;BME280;2591;48.144;15.152;2023-03-01T06:10:09;78056.41;;;-144.65;92.93
5146;BME280;2591;48.144;15.152;2023-03-01T06:12:39;78052.31;;;-144.65;93.06
5146;BME280;2591;48.144;15.152;2023-03-01T06:15:08;78046.22;;;-144.65;93.35
5146;BME280;2591;48.144;15.152;2023-03-01T06:17:39;78038.06;;;-144.65;93.13
5146;BME280;2591;48.144;15.152;2023-03-01T06:20:11;78031.94;;;-144.65;92.82
5146;BME280;2591;48.144;15.152;2023-03-01T06:22:40;78023.78;;;-144.65;92.42
5146;BME280;2591;48.144;15.152;2023-03-01T06:25:09;77999.28;;;-144.65;91.48
5146;BME280;2591;48.144;15.152;2023-03-01T06:27:37;77985.00;;;-144.65;90.46
5146;BME280;2591;48.144;15.152;2023-03-01T06:30:06;77970.72;;;-144.65;89.68
5146;BME280;2591;48.144;15.152;2023-03-01T06:32:34;77970.72;;;-144.65;89.10
5146;BME280;2591;48.144;15.152;2023-03-01T06:35:04;77958.50;;;-144.65;89.16
5146;BME280;2591;48.144;15.152;2023-03-01T06:37:32;77960.53;;;-144.65;88.93
5146;BME280;2591;48.144;15.152;2023-03-01T06:40:02;77954.41;;;-144.65;88.16
5146;BME280;2591;48.144;15.152;2023-03-01T06:42:34;77942.16;;;-144.65;88.06
5146;BME280;2591;48.144;15.152;2023-03-01T06:45:03;77936.06;;;-144.65;88.14
5146;BME280;2591;48.144;15.152;2023-03-01T06:47:31;77931.97;;;-144.65;88.18
5146;BME280;2591;48.144;15.152;2023-03-01T06:50:01;77925.84;;;-144.65;87.94
5146;BME280;2591;48.144;15.152;2023-03-01T06:52:32;77925.84;;;-144.65;88.38
5146;BME280;2591;48.144;15.152;2023-03-01T06:55:00;77913.63;;;-144.65;87.67
5146;BME280;2591;48.144;15.152;2023-03-01T06:57:28;77895.25;;;-144.65;87.49
5146;BME280;2591;48.144;15.152;2023-03-01T06:59:56;77893.22;;;-144.65;86.95
5146;BME280;2591;48.144;15.152;2023-03-01T07:02:24;77880.97;;;-144.65;87.12
5146;BME280;2591;48.144;15.152;2023-03-01T07:04:52;77872.81;;;-144.65;86.46
5146;BME280;2591;48.144;15.152;2023-03-01T07:07:20;77860.56;;;-144.65;86.62
5146;BME280;2591;48.144;15.152;2023-03-01T07:09:50;77854.47;;;-144.65;85.86
5146;BME280;2591;48.144;15.152;2023-03-01T07:12:18;77842.22;;;-144.65;84.48
5146;BME280;2591;48.144;15.152;2023-03-01T07:14:45;77848.34;;;-144.65;83.75
5146;BME280;2591;48.144;15.152;2023-03-01T07:17:13;77844.25;;;-144.65;83.95
5146;BME280;2591;48.144;15.152;2023-03-01T07:19:41;77836.09;;;-144.65;83.95
5146;BME280;2591;48.144;15.152;2023-03-01T07:22:09;77825.91;;;-144.65;83.58
5146;BME280;2591;48.144;15.152;2023-03-01T07:24:36;77811.63;;;-144.65;83.75
5146;BME280;2591;48.144;15.152;2023-03-01T07:27:05;77799.38;;;-144.65;83.27
5146;BME280;2591;48.144;15.152;2023-03-01T07:29:33;77781.03;;;-144.65;83.27
5146;BME280;2591;48.144;15.152;2023-03-01T07:32:03;77762.66;;;-144.65;82.32
5146;BME280;2591;48.144;15.152;2023-03-01T07:34:31;77754.50;;;-144.65;80.91
5146;BME280;2591;48.144;15.152;2023-03-01T07:36:59;77746.34;;;-144.65;81.54
5146;BME280;2591;48.144;15.152;2023-03-01T07:39:27;77725.94;;;-144.65;80.75
5146;BME280;2591;48.144;15.152;2023-03-01T07:41:55;77709.63;;;-144.65;80.10
5146;BME280;2591;48.144;15.152;2023-03-01T07:44:24;77701.47;;;-144.65;79.59
5146;BME280;2591;48.144;15.152;2023-03-01T07:46:52;77683.13;;;-144.65;79.01
5146;BME280;2591;48.144;15.152;2023-03-01T07:49:22;77672.91;;;-144.65;77.76
5146;BME280;2591;48.144;15.152;2023-03-01T07:51:50;77666.78;;;-144.65;76.72
5146;BME280;2591;48.144;15.152;2023-03-01T07:54:18;77640.28;;;-144.65;75.69
5146;BME280;2591;48.144;15.152;2023-03-01T07:56:46;77642.31;;;-144.65;75.22
5146;BME280;2591;48.144;15.152;2023-03-01T07:59:14;77621.94;;;-144.65;75.41
5146;BME280;2591;48.144;15.152;2023-03-01T08:01:43;77619.88;;;-144.65;76.51
5146;BME280;2591;48.144;15.152;2023-03-01T08:04:11;77603.56;;;-144.65;76.45
5146;BME280;2591;48.144;15.152;2023-03-01T08:06:39;77593.38;;;-144.65;76.52
5146;BME280;2591;48.144;15.152;2023-03-01T08:09:06;77556.66;;;-144.65;75.44
5146;BME280;2591;48.144;15.152;2023-03-01T08:11:35;77562.78;;;-144.65;75.79
5146;BME280;2591;48.144;15.152;2023-03-01T08:14:02;77552.56;;;-144.65;75.99
5146;BME280;2591;48.144;15.152;2023-03-01T08:16:30;77530.13;;;-144.65;75.62
5146;BME280;2591;48.144;15.152;2023-03-01T08:19:04;77530.13;;;-144.65;73.13
5146;BME280;2591;48.144;15.152;2023-03-01T08:21:33;77501.59;;;-144.65;72.07
5146;BME280;2591;48.144;15.152;2023-03-01T08:24:02;77509.75;;;-144.65;71.17
5146;BME280;2591;48.144;15.152;2023-03-01T08:26:30;77497.50;;;-144.65;70.70
5146;BME280;2591;48.144;15.152;2023-03-01T08:28:59;77481.19;;;-144.65;70.36
5146;BME280;2591;48.144;15.152;2023-03-01T08:31:29;77473.03;;;-144.65;69.88
5146;BME280;2591;48.144;15.152;2023-03-01T08:33:59;77481.19;;;-144.65;70.44
5146;BME280;2591;48.144;15.152;2023-03-01T08:36:30;77464.88;;;-144.65;69.18
5146;BME280;2591;48.144;15.152;2023-03-01T08:38:59;77444.47;;;-144.65;69.57
5146;BME280;2591;48.144;15.152;2023-03-01T08:41:27;77436.31;;;-144.65;68.55
5146;BME280;2591;48.144;15.152;2023-03-01T08:43:55;77428.16;;;-144.65;68.94
5146;BME280;2591;48.144;15.152;2023-03-01T08:46:26;77411.84;;;-144.65;68.51
5146;BME280;2591;48.144;15.152;2023-03-01T08:48:55;77379.22;;;-144.65;68.75
5146;BME280;2591;48.144;15.152;2023-03-01T08:51:24;77342.50;;;-144.65;67.79
5146;BME280;2591;48.144;15.152;2023-03-01T08:53:53;77338.41;;;-144.65;67.02
5146;BME280;2591;48.144;15.152;2023-03-01T08:56:21;77346.56;;;-144.65;67.19
5146;BME280;2591;48.144;15.152;2023-03-01T08:58:49;77334.34;;;-144.65;67.18
5146;BME280;2591;48.144;15.152;2023-03-01T09:01:18;77338.41;;;-144.65;67.82
5146;BME280;2591;48.144;15.152;2023-03-01T09:03:46;77334.34;;;-144.65;67.78
5146;BME280;2591;48.144;15.152;2023-03-01T09:06:15;77311.91;;;-144.65;68.27
5146;BME280;2591;48.144;15.152;2023-03-01T09:08:44;77289.47;;;-144.65;66.97
5146;BME280;2591;48.144;15.152;2023-03-01T09:11:16;77281.31;;;-144.65;67.25
5146;BME280;2591;48.144;15.152;2023-03-01T09:13:44;77269.06;;;-144.65;65.98
5146;BME280;2591;48.144;15.152;2023-03-01T09:16:14;77289.47;;;-144.65;65.89
5146;BME280;2591;48.144;15.152;2023-03-01T09:18:43;77269.06;;;-144.65;65.96
5146;BME280;2591;48.144;15.152;2023-03-01T09:21:13;77254.78;;;-144.65;65.63
5146;BME280;2591;48.144;15.152;2023-03-01T09:23:42;77252.75;;;-144.65;65.96
5146;BME280;2591;48.144;15.152;2023-03-01T09:26:12;77232.38;;;-144.65;65.81
5146;BME280;2591;48.144;15.152;2023-03-01T09:28:42;77228.28;;;-144.65;65.46
5146;BME280;2591;48.144;15.152;2023-03-01T09:31:12;77199.72;;;-144.65;66.05
5146;BME280;2591;48.144;15.152;2023-03-01T09:33:40;77158.94;;;-144.65;65.21
5146;BME280;2591;48.144;15.152;2023-03-01T09:36:13;77124.28;;;-144.65;64.70
5146;BME280;2591;48.144;15.152;2023-03-01T09:38:42;77118.16;;;-144.65;64.04
5146;BME280;2591;48.144;15.152;2023-03-01T09:41:19;77132.44;;;-144.65;63.47
5146;BME280;2591;48.144;15.152;2023-03-01T09:43:52;77120.19;;;-144.65;64.18
5146;BME280;2591;48.144;15.152;2023-03-01T09:46:23;77077.38;;;-144.65;63.89
5146;BME280;2591;48.144;15.152;2023-03-01T09:48:55;77089.59;;;-144.65;62.53
5146;BME280;2591;48.144;15.152;2023-03-01T09:51:29;77087.56;;;-144.65;62.29
5146;BME280;2591;48.144;15.152;2023-03-01T09:54:00;77075.31;;;-144.65;63.45
5146;BME280;2591;48.144;15.152;2023-03-01T09:56:32;77024.34;;;-144.65;63.63
5146;BME280;2591;48.144;15.152;2023-03-01T09:59:15;76991.72;;;-144.65;62.97
5146;BME280;2591;48.144;15.152;2023-03-01T10:01:53;76983.56;;;-144.65;61.58
5146;BME280;2591;48.144;15.152;2023-03-01T10:04:28;76971.31;;;-144.65;61.80
5146;BME280;2591;48.144;15.152;2023-03-01T10:07:14;76975.41;;;-144.65;61.09
5146;BME280;2591;48.144;15.152;2023-03-01T10:09:45;76979.47;;;-144.65;61.23
5146;BME280;2591;48.144;15.152;2023-03-01T10:12:16;76942.78;;;-144.65;61.29
5146;BME280;2591;48.144;15.152;2023-03-01T10:14:52;76914.22;;;-144.65;62.12
5146;BME280;2591;48.144;15.152;2023-03-01T10:17:27;76889.75;;;-144.65;61.66
5146;BME280;2591;48.144;15.152;2023-03-01T10:20:13;76865.28;;;-144.65;61.41
5146;BME280;2591;48.144;15.152;2023-03-01T10:22:41;76848.97;;;-144.65;61.87
5146;BME280;2591;48.144;15.152;2023-03-01T10:25:14;76820.41;;;-144.65;60.63
5146;BME280;2591;48.144;15.152;2023-03-01T10:27:50;76812.25;;;-144.65;60.51
5146;BME280;2591;48.144;15.152;2023-03-01T10:30:22;76802.06;;;-144.65;60.75
5146;BME280;2591;48.144;15.152;2023-03-01T10:32:57;76812.25;;;-144.65;60.59
5146;BME280;2591;48.144;15.152;2023-03-01T10:35:31;76804.09;;;-144.65;61.05
5146;BME280;2591;48.144;15.152;2023-03-01T10:38:05;76775.56;;;-144.65;60.83
5146;BME280;2591;48.144;15.152;2023-03-01T10:40:34;76753.13;;;-144.65;60.08
5146;BME280;2591;48.144;15.152;2023-03-01T10:43:04;76751.09;;;-144.65;59.81
5146;BME280;2591;48.144;15.152;2023-03-01T10:45:37;76732.72;;;-144.65;60.02
5146;BME280;2591;48.144;15.152;2023-03-01T10:48:11;76722.53;;;-144.65;59.48
5146;BME280;2591;48.144;15.152;2023-03-01T10:50:41;76696.03;;;-144.65;59.32
5146;BME280;2591;48.144;15.152;2023-03-01T10:53:27;76683.78;;;-144.65;58.68
5146;BME280;2591;48.144;15.152;2023-03-01T10:55:59;76698.06;;;-144.65;58.47
5146;BME280;2591;48.144;15.152;2023-03-01T10:58:28;76718.47;;;-144.65;59.34
5146;BME280;2591;48.144;15.152;2023-03-01T11:00:59;76722.53;;;-144.65;58.81
5146;BME280;2591;48.144;15.152;2023-03-01T11:03:29;76714.38;;;-144.65;60.26
5146;BME280;2591;48.144;15.152;2023-03-01T11:06:04;76669.53;;;-144.65;60.20
5146;BME280;2591;48.144;15.152;2023-03-01T11:08:43;76649.13;;;-144.65;58.86
5146;BME280;2591;48.144;15.152;2023-03-01T11:11:32;76645.03;;;-144.65;59.00
5146;BME280;2591;48.144;15.152;2023-03-01T11:14:05;76638.94;;;-144.65;58.66
5146;BME280;2591;48.144;15.152;2023-03-01T11:17:01;76638.94;;;-144.65;58.84
5146;BME280;2591;48.144;15.152;2023-03-01T11:19:29;76632.81;;;-144.65;58.66
5146;BME280;2591;48.144;15.152;2023-03-01T11:22:02;76618.53;;;-144.65;58.32
5146;BME280;2591;48.144;15.152;2023-03-01T11:24:34;76632.81;;;-144.65;59.72
5146;BME280;2591;48.144;15.152;2023-03-01T11:27:13;76600.19;;;-144.65;58.42
5146;BME280;2591;48.144;15.152;2023-03-01T11:29:44;76600.19;;;-144.65;58.47
5146;BME280;2591;48.144;15.152;2023-03-01T11:32:16;76596.09;;;-144.65;57.99
5146;BME280;2591;48.144;15.152;2023-03-01T11:34:49;76587.94;;;-144.65;58.39
5146;BME280;2591;48.144;15.152;2023-03-01T11:37:28;76600.19;;;-144.65;58.06
5146;BME280;2591;48.144;15.152;2023-03-01T11:40:04;76587.94;;;-144.65;58.08
5146;BME280;2591;48.144;15.152;2023-03-01T11:42:43;76551.25;;;-144.65;57.56
5146;BME280;2591;48.144;15.152;2023-03-01T11:45:14;76569.59;;;-144.65;58.00
5146;BME280;2591;48.144;15.152;2023-03-01T11:47:55;76555.31;;;-144.65;58.54
5146;BME280;2591;48.144;15.152;2023-03-01T11:50:30;76526.78;;;-144.65;57.29
5146;BME280;2591;48.144;15.152;2023-03-01T11:53:15;76536.97;;;-144.65;58.35
5146;BME280;2591;48.144;15.152;2023-03-01T11:55:58;76514.53;;;-144.65;56.99
5146;BME280;2591;48.144;15.152;2023-03-01T11:58:48;76526.78;;;-144.65;57.38
5146;BME280;2591;48.144;15.152;2023-03-01T12:01:35;76534.94;;;-144.65;58.24
5146;BME280;2591;48.144;15.152;2023-03-01T12:04:42;76486.00;;;-144.65;56.69
5146;BME280;2591;48.144;15.152;2023-03-01T12:07:23;76490.06;;;-144.65;57.06
5146;BME280;2591;48.144;15.152;2023-03-01T12:10:15;76504.34;;;-144.65;57.69
5146;BME280;2591;48.144;15.152;2023-03-01T12:12:57;76490.06;;;-144.65;57.21
5146;BME280;2591;48.144;15.152;2023-03-01T12:15:38;76510.47;;;-144.65;57.86
5146;BME280;2591;48.144;15.152;2023-03-01T12:18:21;76494.16;;;-144.65;57.28
5146;BME280;2591;48.144;15.152;2023-03-01T12:20:59;76547.16;;;-144.65;57.74
5146;BME280;2591;48.144;15.152;2023-03-01T12:23:54;76549.22;;;-144.65;58.00
5146;BME280;2591;48.144;15.152;2023-03-01T12:26:28;76559.41;;;-144.65;58.25
5146;BME280;2591;48.144;15.152;2023-03-01T12:29:07;76571.63;;;-144.65;58.41
5146;BME280;2591;48.144;15.152;2023-03-01T12:31:50;76571.63;;;-144.65;58.68
5146;BME280;2591;48.144;15.152;2023-03-01T12:37:26;76534.94;;;-144.65;59.29
5146;BME280;2591;48.144;15.152;2023-03-01T12:40:10;76530.84;;;-144.65;57.98
5146;BME280;2591;48.144;15.152;2023-03-01T12:42:48;76506.38;;;-144.65;57.94
5146;BME280;2591;48.144;15.152;2023-03-01T12:45:32;76512.50;;;-144.65;58.21
5146;BME280;2591;48.144;15.152;2023-03-01T12:48:12;76530.84;;;-144.65;58.53
5146;BME280;2591;48.144;15.152;2023-03-01T12:50:47;76532.91;;;-144.65;58.09
5146;BME280;2591;48.144;15.152;2023-03-01T12:53:23;76543.09;;;-144.65;58.33
5146;BME280;2591;48.144;15.152;2023-03-01T12:55:53;76534.94;;;-144.65;58.41
5146;BME280;2591;48.144;15.152;2023-03-01T12:58:27;76541.06;;;-144.65;58.61
5146;BME280;2591;48.144;15.152;2023-03-01T13:01:22;76528.81;;;-144.65;58.42
5146;BME280;2591;48.144;15.152;2023-03-01T13:07:15;76563.47;;;-144.65;58.38
5146;BME280;2591;48.144;15.152;2023-03-01T13:09:53;76575.72;;;-144.65;58.58
5146;BME280;2591;48.144;15.152;2023-03-01T13:12:51;76569.59;;;-144.65;58.96
5146;BME280;2591;48.144;15.152;2023-03-01T13:15:34;76583.88;;;-144.65;58.94
5146;BME280;2591;48.144;15.152;2023-03-01T13:18:03;76571.63;;;-144.65;59.05
5146;BME280;2591;48.144;15.152;2023-03-01T13:20:44;76569.59;;;-144.65;59.19